createdAt,value
2023-03-24T00:01:28.236Z,10.50
2023-03-24T00:07:10.222Z,10.45
2023-03-24T00:18:48.006Z,3.55
2023-03-24T00:24:25.583Z,4.30
2023-03-24T00:30:11.089Z,3.78
2023-03-24T00:35:43.989Z,4.38
2023-03-24T00:47:46.427Z,5.07
2023-03-24T00:53:24.537Z,5.30
2023-03-24T00:58:34.174Z,5.37
2023-03-24T01:03:51.041Z,6.22
2023-03-24T01:08:59.440Z,7.10
2023-03-24T01:14:21.634Z,7.60
2023-03-24T01:19:45.344Z,6.93
2023-03-24T01:25:17.188Z,6.68
2023-03-24T01:31:13.467Z,6.25
2023-03-24T01:37:20.875Z,5.97
2023-03-24T01:43:45.884Z,6.78
2023-03-24T01:49:09.993Z,6.63
2023-03-24T01:54:22.128Z,5.32
2023-03-24T01:59:36.111Z,4.18
2023-03-24T02:05:03.814Z,5.30
2023-03-24T02:10:18.992Z,5.95
2023-03-24T02:15:22.489Z,5.38
2023-03-24T02:21:41.153Z,4.88
2023-03-24T02:27:43.197Z,6.05
2023-03-24T02:33:30.418Z,5.15
2023-03-24T02:39:49.866Z,4.60
2023-03-24T02:46:14.674Z,4.53
2023-03-24T02:52:22.250Z,4.50
2023-03-24T03:03:48.099Z,4.68
2023-03-24T03:09:09.880Z,4.70
2023-03-24T03:14:41.162Z,4.60
2023-03-24T03:19:53.432Z,5.30
2023-03-24T03:24:57.727Z,4.43
2023-03-24T03:30:09.522Z,3.90
2023-03-24T03:35:16.338Z,3.97
2023-03-24T03:40:27.112Z,4.10
2023-03-24T03:45:37.943Z,3.58
2023-03-24T03:50:40.982Z,4.35
2023-03-24T03:55:45.863Z,3.65
2023-03-24T04:00:51.160Z,2.97
2023-03-24T04:06:25.627Z,3.03
2023-03-24T04:13:03.835Z,2.80
2023-03-24T04:18:23.648Z,3.08
2023-03-24T04:24:09.158Z,3.17
2023-03-24T04:29:19.490Z,2.70
2023-03-24T04:34:51.073Z,3.08
2023-03-24T04:40:12.684Z,3.25
2023-03-24T04:52:16.220Z,3.10
2023-03-24T04:58:19.460Z,3.22
2023-03-24T05:03:46.364Z,2.95
2023-03-24T05:09:42.234Z,3.22
2023-03-24T05:15:21.847Z,5.85
2023-03-24T05:20:31.783Z,4.72
2023-03-24T05:25:49.003Z,3.72
2023-03-24T05:31:00.591Z,3.90
2023-03-24T05:36:20.710Z,4.10
2023-03-24T05:41:31.697Z,3.28
2023-03-24T05:46:46.885Z,4.20
2023-03-24T05:51:58.813Z,3.92
2023-03-24T05:57:16.907Z,4.20
2023-03-24T06:03:13.318Z,4.25
2023-03-24T06:08:25.122Z,4.15
2023-03-24T06:14:35.394Z,3.53
2023-03-24T06:26:10.165Z,4.85
2023-03-24T06:31:23.078Z,4.20
2023-03-24T06:36:28.334Z,3.80
2023-03-24T06:41:33.126Z,3.25
2023-03-24T06:46:38.138Z,3.42
2023-03-24T06:51:44.828Z,3.42
2023-03-24T06:56:49.415Z,4.90
2023-03-24T07:01:55.766Z,3.95
2023-03-24T07:07:25.834Z,4.63
2023-03-24T07:12:33.542Z,4.30
2023-03-24T07:17:43.886Z,3.53
2023-03-24T07:23:09.723Z,4.28
2023-03-24T07:28:33.911Z,5.13
2023-03-24T07:33:40.189Z,4.30
2023-03-24T07:38:53.440Z,4.15
2023-03-24T07:44:07.025Z,4.60
2023-03-24T07:49:19.367Z,4.20
2023-03-24T07:54:44.453Z,4.15
2023-03-24T08:00:00.467Z,3.80
2023-03-24T08:05:23.488Z,3.57
2023-03-24T08:10:34.513Z,3.75
2023-03-24T08:15:40.711Z,3.60
2023-03-24T08:20:50.758Z,3.83
2023-03-24T08:25:53.423Z,2.95
2023-03-24T08:30:56.513Z,3.65
2023-03-24T08:36:03.240Z,3.25
2023-03-24T08:41:08.765Z,3.38
2023-03-24T08:46:13.789Z,4.45
2023-03-24T08:51:21.522Z,4.43
2023-03-24T08:56:24.514Z,4.10
2023-03-24T09:01:37.911Z,4.50
2023-03-24T09:06:43.480Z,4.35
2023-03-24T09:11:48.958Z,4.40
2023-03-24T09:16:53.828Z,4.40
2023-03-24T09:22:01.832Z,4.53
2023-03-24T09:27:04.514Z,4.10
2023-03-24T09:32:08.232Z,3.60
2023-03-24T09:37:10.936Z,3.40
2023-03-24T09:42:24.518Z,3.50
2023-03-24T09:47:30.140Z,5.05
2023-03-24T09:52:40.782Z,6.07
2023-03-24T09:57:46.728Z,4.50
2023-03-24T10:02:52.126Z,3.90
2023-03-24T10:08:18.808Z,3.53
2023-03-24T10:13:48.332Z,3.67
2023-03-24T10:19:00.472Z,3.38
2023-03-24T10:24:26.543Z,4.33
2023-03-24T10:29:33.102Z,4.05
2023-03-24T10:34:38.933Z,3.80
2023-03-24T10:39:45.151Z,3.33
2023-03-24T10:44:51.851Z,3.90
2023-03-24T10:49:58.258Z,3.70
2023-03-24T10:55:07.725Z,4.20
2023-03-24T11:00:23.275Z,3.50
2023-03-24T11:05:36.186Z,5.05
2023-03-24T11:10:39.126Z,3.38
2023-03-24T11:15:57.588Z,3.30
2023-03-24T11:21:05.848Z,4.72
2023-03-24T11:26:09.882Z,2.90
2023-03-24T11:31:19.734Z,2.83
2023-03-24T11:36:33.301Z,2.53
2023-03-24T11:41:44.809Z,3.55
2023-03-24T11:46:58.414Z,2.88
2023-03-24T11:52:13.003Z,2.42
2023-03-24T11:57:22.714Z,2.15
2023-03-24T12:03:01.875Z,2.00
2023-03-24T12:08:14.241Z,3.20
2023-03-24T12:13:34.414Z,2.20
2023-03-24T12:19:13.607Z,2.47
2023-03-24T12:24:29.276Z,4.93
2023-03-24T12:29:43.963Z,5.82
2023-03-24T12:34:56.683Z,3.38
2023-03-24T12:40:31.197Z,3.53
2023-03-24T12:45:37.034Z,6.10
2023-03-24T12:51:00.885Z,2.63
2023-03-24T12:56:26.786Z,2.42
2023-03-24T13:01:44.721Z,2.70
2023-03-24T13:07:00.671Z,2.53
2023-03-24T13:12:12.974Z,2.17
2023-03-24T13:17:45.158Z,2.37
2023-03-24T13:22:48.179Z,2.75
2023-03-24T13:27:53.932Z,2.50
2023-03-24T13:33:03.187Z,2.42
2023-03-24T13:38:18.279Z,1.92
2023-03-24T13:43:30.940Z,2.35
2023-03-24T13:48:59.443Z,2.55
2023-03-24T13:54:16.342Z,5.28
2023-03-24T13:59:42.067Z,5.25
2023-03-24T14:05:31.633Z,7.63
2023-03-24T14:10:46.518Z,8.57
2023-03-24T14:15:56.848Z,12.50
2023-03-24T14:21:02.155Z,6.90
2023-03-24T14:26:29.477Z,5.00
2023-03-24T14:31:39.272Z,4.50
2023-03-24T14:36:45.162Z,18.88
2023-03-24T14:41:52.184Z,14.98
2023-03-24T14:46:58.376Z,10.52
2023-03-24T14:52:09.412Z,7.25
2023-03-24T14:57:22.991Z,5.60
2023-03-24T15:02:30.276Z,4.93
2023-03-24T15:07:33.053Z,4.75
2023-03-24T15:12:36.628Z,6.43
2023-03-24T15:17:42.933Z,8.27
2023-03-24T15:22:45.560Z,10.68
2023-03-24T15:27:52.390Z,5.70
2023-03-24T15:32:58.610Z,9.02
2023-03-24T15:38:01.268Z,6.07
2023-03-24T15:43:07.159Z,8.00
2023-03-24T15:48:15.672Z,16.38
2023-03-24T15:53:18.508Z,8.32
2023-03-24T15:58:28.184Z,11.63
2023-03-24T16:03:32.608Z,8.35
2023-03-24T16:08:39.375Z,5.35
2023-03-24T16:13:44.727Z,7.30
2023-03-24T16:18:49.239Z,13.00
2023-03-24T16:23:56.873Z,21.33
2023-03-24T16:29:08.916Z,20.15
2023-03-24T16:34:11.591Z,25.15
2023-03-24T16:39:17.534Z,25.77
2023-03-24T16:44:46.759Z,51.65
2023-03-24T16:49:55.198Z,42.10
2023-03-24T16:54:58.299Z,11.18
2023-03-24T17:00:10.950Z,27.33
2023-03-24T17:05:17.979Z,79.55
2023-03-24T17:10:22.690Z,33.10
2023-03-24T17:15:29.770Z,46.20
2023-03-24T17:20:35.208Z,68.50
2023-03-24T17:25:37.895Z,44.30
2023-03-24T17:30:40.616Z,20.17
2023-03-24T17:35:47.084Z,10.07
2023-03-24T17:41:01.945Z,8.55
2023-03-24T17:46:07.215Z,20.30
2023-03-24T17:51:09.747Z,12.23
2023-03-24T17:56:12.463Z,11.67
2023-03-24T18:01:18.503Z,8.57
2023-03-24T18:06:22.463Z,10.48
2023-03-24T18:11:25.710Z,24.77
2023-03-24T18:16:35.795Z,16.63
2023-03-24T18:21:39.970Z,41.50
2023-03-24T18:26:42.949Z,22.10
2023-03-24T18:31:46.544Z,19.30
2023-03-24T18:37:09.809Z,18.05
2023-03-24T18:42:12.694Z,16.55
2023-03-24T18:47:17.999Z,17.42
2023-03-24T18:52:20.794Z,18.13
2023-03-24T18:57:23.402Z,17.10
2023-03-24T19:02:26.143Z,18.07
2023-03-24T19:07:29.245Z,18.55
2023-03-24T19:12:31.949Z,20.47
2023-03-24T19:17:34.721Z,16.90
2023-03-24T19:22:40.592Z,11.90
2023-03-24T19:27:43.300Z,14.32
2023-03-24T19:32:51.066Z,13.68
2023-03-24T19:38:02.101Z,13.15
2023-03-24T19:43:04.968Z,11.45
2023-03-24T19:48:12.611Z,11.75
2023-03-24T19:53:16.316Z,15.13
2023-03-24T19:58:18.846Z,29.58
2023-03-24T20:03:21.685Z,12.70
2023-03-24T20:08:26.276Z,11.35
2023-03-24T20:13:29.642Z,9.05
2023-03-24T20:18:32.372Z,8.77
2023-03-24T20:23:36.067Z,6.67
2023-03-24T20:28:42.019Z,7.78
2023-03-24T20:33:44.536Z,7.28
2023-03-24T20:38:48.602Z,9.85
2023-03-24T20:43:51.278Z,8.05
2023-03-24T20:48:53.819Z,10.90
2023-03-24T20:53:56.324Z,14.70
2023-03-24T20:59:02.920Z,11.52
2023-03-24T21:04:09.268Z,10.00
2023-03-24T21:09:12.300Z,12.65
2023-03-24T21:14:14.899Z,13.77
2023-03-24T21:19:19.317Z,11.80
2023-03-24T21:24:23.006Z,10.82
2023-03-24T21:29:26.913Z,10.23
2023-03-24T21:34:29.623Z,10.23
2023-03-24T21:39:35.138Z,11.53
2023-03-24T21:44:39.984Z,7.85
2023-03-24T21:49:49.232Z,7.47
2023-03-24T21:54:54.045Z,7.78
2023-03-24T21:59:57.388Z,7.38
2023-03-24T22:05:01.738Z,7.75
2023-03-24T22:10:13.578Z,8.38
2023-03-24T22:15:16.648Z,7.82
2023-03-24T22:20:19.269Z,9.43
2023-03-24T22:25:21.871Z,7.47
2023-03-24T22:30:24.687Z,6.77
2023-03-24T22:35:28.343Z,6.40
2023-03-24T22:40:33.863Z,6.90
2023-03-24T22:45:36.586Z,6.47
2023-03-24T22:50:43.044Z,7.35
2023-03-24T22:55:46.746Z,7.30
2023-03-24T23:05:53.494Z,7.70
2023-03-24T23:10:57.693Z,8.40
2023-03-24T23:16:02.436Z,6.50
2023-03-24T23:21:10.047Z,6.18
2023-03-24T23:26:25.501Z,6.13
2023-03-24T23:31:29.371Z,4.38
2023-03-24T23:36:41.260Z,4.97
2023-03-24T23:41:55.238Z,5.78
2023-03-24T23:46:59.708Z,5.95
2023-03-24T23:52:02.332Z,4.78
2023-03-24T23:57:04.907Z,4.32
